Time;durP1;ratioP1;P1;durP2;ratioP2;P2;SDS_P1;SDS_P2;PMS_P1;PMS_P2;Temp;Humidity;BMP_temperature;BMP_pressure;BME280_temperature;BME280_humidity;BME280_pressure;Samples;Min_cycle;Max_cycle;Signal;HPM_P1;HPM_P2
2021/11/21 00:01:34;;;;;;;27.03;24.83;;;5.60;99.90;;;;;;4973360;28;20458;-73
2021/11/21 00:04:00;;;;;;;25.67;23.23;;;5.60;99.90;;;;;;4973553;28;20451;-72
2021/11/21 00:06:27;;;;;;;24.83;22.73;;;5.50;99.90;;;;;;4973267;28;20459;-72
2021/11/21 00:08:56;;;;;;;26.00;23.50;;;5.40;99.90;;;;;;4973233;28;20514;-72
2021/11/21 00:11:23;;;;;;;26.60;24.20;;;5.40;99.90;;;;;;4973130;28;20469;-73
2021/11/21 00:13:51;;;;;;;27.03;24.50;;;5.40;99.90;;;;;;4972926;28;20491;-73
2021/11/21 00:16:19;;;;;;;29.70;26.93;;;5.50;99.90;;;;;;4972767;28;20461;-72
2021/11/21 00:18:45;;;;;;;28.60;26.10;;;5.50;99.90;;;;;;4973188;28;20459;-73
2021/11/21 00:21:12;;;;;;;28.40;25.73;;;5.50;99.90;;;;;;4973056;28;20800;-73
2021/11/21 00:23:39;;;;;;;28.80;26.20;;;5.50;99.90;;;;;;4972721;28;20452;-73
2021/11/21 00:26:07;;;;;;;29.13;26.33;;;5.50;99.90;;;;;;4972606;28;20467;-73
2021/11/21 00:28:34;;;;;;;27.40;25.00;;;5.50;99.90;;;;;;4972290;28;20490;-72
2021/11/21 00:31:01;;;;;;;28.57;25.87;;;5.50;99.90;;;;;;4972756;28;20482;-73
2021/11/21 00:33:28;;;;;;;28.40;25.60;;;5.60;99.90;;;;;;4972661;28;20582;-73
2021/11/21 00:35:55;;;;;;;27.30;24.80;;;5.60;99.90;;;;;;4972368;28;20464;-72
2021/11/21 00:38:21;;;;;;;29.80;27.20;;;5.60;99.90;;;;;;4972319;28;20526;-74
2021/11/21 00:40:48;;;;;;;27.77;25.40;;;5.70;99.90;;;;;;4971871;28;20488;-74
2021/11/21 00:43:16;;;;;;;28.53;25.93;;;5.70;99.90;;;;;;4972593;28;20458;-74
2021/11/21 00:45:43;;;;;;;28.60;26.10;;;5.70;99.90;;;;;;4972555;28;20453;-74
2021/11/21 00:48:09;;;;;;;28.23;25.67;;;5.60;99.90;;;;;;4972061;28;20517;-73
2021/11/21 00:50:36;;;;;;;28.77;26.27;;;5.60;99.90;;;;;;4972132;28;20451;-74
2021/11/21 00:53:04;;;;;;;28.27;25.87;;;5.60;99.90;;;;;;4972272;28;20466;-72
2021/11/21 00:55:37;;;;;;;27.40;24.80;;;5.50;99.90;;;;;;4972053;28;20495;-73
2021/11/21 00:58:05;;;;;;;27.00;24.77;;;5.60;99.90;;;;;;4972338;28;20547;-75
2021/11/21 01:00:34;;;;;;;26.83;24.53;;;5.60;99.90;;;;;;4972203;28;20463;-73
2021/11/21 01:03:01;;;;;;;25.97;23.70;;;5.60;99.90;;;;;;4972379;28;20462;-73
2021/11/21 01:05:28;;;;;;;24.83;22.63;;;5.60;99.90;;;;;;4972200;28;20459;-75
2021/11/21 01:07:55;;;;;;;25.50;23.40;;;5.60;99.90;;;;;;4972300;28;20469;-74
2021/11/21 01:10:23;;;;;;;23.13;21.23;;;5.50;99.90;;;;;;4971985;28;20968;-74
2021/11/21 01:12:53;;;;;;;22.70;20.87;;;5.50;99.90;;;;;;4971891;28;20469;-74
2021/11/21 01:15:21;;;;;;;24.77;22.77;;;5.50;99.90;;;;;;4971640;28;20500;-75
2021/11/21 01:17:50;;;;;;;25.27;23.27;;;5.40;99.90;;;;;;4971820;28;20969;-74
2021/11/21 01:20:18;;;;;;;25.27;23.20;;;5.40;99.90;;;;;;4972199;28;20461;-74
2021/11/21 01:22:45;;;;;;;25.63;23.60;;;5.40;99.90;;;;;;4971496;28;20509;-74
2021/11/21 01:25:13;;;;;;;25.70;23.63;;;5.40;99.90;;;;;;4971988;28;20456;-74
2021/11/21 01:27:41;;;;;;;26.10;23.70;;;5.50;99.90;;;;;;4971420;28;20555;-74
2021/11/21 01:30:10;;;;;;;24.50;22.60;;;5.50;99.90;;;;;;4971463;28;20490;-75
2021/11/21 01:32:37;;;;;;;26.30;23.90;;;5.50;99.90;;;;;;4971779;28;20451;-74
2021/11/21 01:35:06;;;;;;;24.77;22.73;;;5.50;99.90;;;;;;4971370;28;20483;-73
2021/11/21 01:37:33;;;;;;;25.97;23.87;;;5.50;99.90;;;;;;4971614;28;20455;-73
2021/11/21 01:40:00;;;;;;;26.27;24.00;;;5.50;99.90;;;;;;4971716;28;20537;-73
2021/11/21 01:42:27;;;;;;;25.97;23.87;;;5.50;99.90;;;;;;4971655;28;20938;-72
2021/11/21 01:44:54;;;;;;;25.07;22.90;;;5.50;99.90;;;;;;4971696;28;20468;-73
2021/11/21 01:47:21;;;;;;;26.03;24.13;;;5.50;99.90;;;;;;4972140;28;20456;-75
2021/11/21 01:49:47;;;;;;;25.40;23.60;;;5.50;99.90;;;;;;4972042;28;20447;-74
2021/11/21 01:52:16;;;;;;;26.90;24.67;;;5.40;99.90;;;;;;4973732;28;20524;-74
2021/11/21 01:54:42;;;;;;;26.53;24.47;;;5.40;99.90;;;;;;4975952;28;20483;-72
2021/11/21 01:57:11;;;;;;;25.53;23.43;;;5.40;99.90;;;;;;4975750;28;20465;-72
2021/11/21 01:59:38;;;;;;;27.37;25.10;;;5.40;99.90;;;;;;4975558;28;20569;-72
2021/11/21 02:02:05;;;;;;;27.57;25.40;;;5.40;99.90;;;;;;4975920;28;20452;-74
2021/11/21 02:04:32;;;;;;;26.47;24.27;;;5.40;99.90;;;;;;4975890;28;20456;-75
2021/11/21 02:06:59;;;;;;;24.93;22.97;;;5.50;99.90;;;;;;4975816;28;20458;-74
2021/11/21 02:09:27;;;;;;;28.27;25.77;;;5.40;99.90;;;;;;4975354;28;20460;-74
2021/11/21 02:11:54;;;;;;;26.43;24.27;;;5.40;99.90;;;;;;4975716;28;20452;-74
2021/11/21 02:14:21;;;;;;;26.47;24.17;;;5.50;99.90;;;;;;4975313;28;20488;-74
2021/11/21 02:16:48;;;;;;;27.57;25.27;;;5.50;99.90;;;;;;4975390;28;20455;-74
2021/11/21 02:19:18;;;;;;;27.50;25.20;;;5.40;99.90;;;;;;4975537;28;20451;-74
2021/11/21 02:21:46;;;;;;;24.73;22.67;;;5.40;99.90;;;;;;4975575;28;20454;-74
2021/11/21 02:24:13;;;;;;;27.17;24.93;;;5.40;99.90;;;;;;4975148;28;20462;-73
2021/11/21 02:26:39;;;;;;;28.33;25.90;;;5.40;99.90;;;;;;4975254;28;20448;-74
2021/11/21 02:29:06;;;;;;;27.27;24.90;;;5.30;99.90;;;;;;4975153;28;20511;-74
2021/11/21 02:31:33;;;;;;;26.27;24.03;;;5.40;99.90;;;;;;4975288;28;20455;-74
2021/11/21 02:33:59;;;;;;;30.00;27.30;;;5.40;99.90;;;;;;4975313;28;20859;-74
2021/11/21 02:36:26;;;;;;;28.93;26.30;;;5.40;99.90;;;;;;4975190;28;20451;-74
2021/11/21 02:38:54;;;;;;;27.57;25.10;;;5.30;99.90;;;;;;4975070;28;20487;-73
2021/11/21 02:41:21;;;;;;;27.30;24.87;;;5.30;99.90;;;;;;4975017;28;20454;-73
2021/11/21 02:43:48;;;;;;;27.30;24.87;;;5.20;99.90;;;;;;4975298;28;20466;-73
2021/11/21 02:46:16;;;;;;;27.00;24.47;;;5.30;99.90;;;;;;4975149;28;20459;-74
2021/11/21 02:48:44;;;;;;;28.20;25.83;;;5.30;99.90;;;;;;4974832;28;20465;-73
2021/11/21 02:51:14;;;;;;;26.87;24.70;;;5.30;99.90;;;;;;4974899;28;20459;-73
2021/11/21 02:53:43;;;;;;;26.57;24.33;;;5.30;99.90;;;;;;4974849;28;20532;-72
2021/11/21 02:56:13;;;;;;;26.63;24.37;;;5.30;99.90;;;;;;4974691;28;20516;-73
2021/11/21 02:58:40;;;;;;;26.23;23.90;;;5.40;99.90;;;;;;4974750;28;20452;-73
2021/11/21 03:01:11;;;;;;;27.30;24.90;;;5.40;99.90;;;;;;4974544;28;20451;-72
2021/11/21 03:03:37;;;;;;;27.57;25.27;;;5.30;99.90;;;;;;4974562;28;20529;-72
2021/11/21 03:06:04;;;;;;;25.33;23.30;;;5.30;99.90;;;;;;4974327;28;20462;-73
2021/11/21 03:08:31;;;;;;;25.23;23.20;;;5.30;99.90;;;;;;4974960;28;20453;-72
2021/11/21 03:11:04;;;;;;;26.50;24.27;;;5.30;99.90;;;;;;4974565;28;20454;-73
2021/11/21 03:13:32;;;;;;;24.60;22.60;;;5.30;99.90;;;;;;4974979;28;20455;-72
2021/11/21 03:15:59;;;;;;;26.40;24.27;;;5.40;99.90;;;;;;4974348;28;20491;-73
2021/11/21 03:18:25;;;;;;;24.20;22.30;;;5.40;99.90;;;;;;4974500;28;20791;-72
2021/11/21 03:20:52;;;;;;;27.20;24.80;;;5.30;99.90;;;;;;4974579;28;20447;-73
2021/11/21 03:23:19;;;;;;;24.20;22.40;;;5.30;99.90;;;;;;4974355;28;20459;-73
2021/11/21 03:25:45;;;;;;;27.30;24.87;;;5.20;99.90;;;;;;4974214;28;20450;-73
2021/11/21 03:28:12;;;;;;;25.97;23.90;;;5.20;99.90;;;;;;4974329;28;20478;-72
2021/11/21 03:30:42;;;;;;;27.70;24.97;;;5.30;99.90;;;;;;4974104;28;20458;-74
2021/11/21 03:33:09;;;;;;;25.93;23.80;;;5.30;99.90;;;;;;4974178;28;20453;-73
2021/11/21 03:35:36;;;;;;;27.20;25.10;;;5.40;99.90;;;;;;4973903;28;20487;-72
2021/11/21 03:38:03;;;;;;;25.40;23.40;;;5.40;99.90;;;;;;4974135;28;20456;-71
2021/11/21 03:40:31;;;;;;;25.60;23.57;;;5.30;99.90;;;;;;4974239;28;20463;-72
2021/11/21 03:43:00;;;;;;;28.70;26.20;;;5.30;99.90;;;;;;4974046;28;20949;-71
2021/11/21 03:45:27;;;;;;;28.60;26.10;;;5.20;99.90;;;;;;4974079;28;20451;-71
2021/11/21 03:47:55;;;;;;;28.97;26.30;;;5.20;99.90;;;;;;4973660;28;20518;-72
2021/11/21 03:50:22;;;;;;;28.90;26.50;;;5.20;99.90;;;;;;4979490;28;20444;-72
2021/11/21 03:52:48;;;;;;;28.30;25.80;;;5.10;99.90;;;;;;4981565;28;20455;-72
2021/11/21 03:55:18;;;;;;;28.13;25.50;;;5.10;99.90;;;;;;4983286;28;20479;-72
2021/11/21 03:57:46;;;;;;;29.80;27.30;;;5.10;99.90;;;;;;4983143;28;20453;-72
2021/11/21 04:00:15;;;;;;;27.17;24.67;;;5.20;99.90;;;;;;4982564;28;20448;-73
2021/11/21 04:02:42;;;;;;;27.37;25.07;;;5.20;99.90;;;;;;4981160;28;20443;-72
2021/11/21 04:05:12;;;;;;;28.13;25.37;;;5.20;99.90;;;;;;4981863;28;20944;-73
2021/11/21 04:07:39;;;;;;;27.63;25.10;;;5.20;99.90;;;;;;4982815;28;20435;-73
2021/11/21 04:10:07;;;;;;;28.73;26.17;;;5.10;99.90;;;;;;4981409;28;20479;-73
2021/11/21 04:12:34;;;;;;;28.23;25.87;;;5.00;99.90;;;;;;4981360;28;20450;-72
2021/11/21 04:15:00;;;;;;;27.50;25.00;;;5.00;99.90;;;;;;4982377;28;20887;-72
2021/11/21 04:17:28;;;;;;;27.53;25.07;;;5.00;99.90;;;;;;4981424;28;20448;-72
2021/11/21 04:19:55;;;;;;;27.93;25.47;;;5.00;99.90;;;;;;4980972;28;20528;-73
2021/11/21 04:22:23;;;;;;;26.70;24.47;;;5.00;99.90;;;;;;4982810;28;20440;-73
2021/11/21 04:24:50;;;;;;;26.80;24.70;;;5.10;99.90;;;;;;4981488;28;20440;-72
2021/11/21 04:27:17;;;;;;;27.40;25.13;;;5.10;99.90;;;;;;4980862;28;20480;-72
2021/11/21 04:29:43;;;;;;;27.63;25.43;;;5.10;99.90;;;;;;4980548;28;20994;-72
2021/11/21 04:32:10;;;;;;;27.83;25.33;;;5.10;99.90;;;;;;4981257;28;20450;-72
2021/11/21 04:34:37;;;;;;;25.87;23.47;;;5.10;99.90;;;;;;4982101;28;20496;-72
2021/11/21 04:37:04;;;;;;;27.07;24.50;;;5.00;99.90;;;;;;4980487;28;20444;-72
2021/11/21 04:39:32;;;;;;;26.20;23.90;;;5.00;99.90;;;;;;4981207;28;20453;-72
2021/11/21 04:41:59;;;;;;;26.27;24.17;;;5.00;99.90;;;;;;4982357;28;20447;-73
2021/11/21 04:44:26;;;;;;;28.30;26.00;;;5.00;99.90;;;;;;4980474;28;20464;-73
2021/11/21 04:46:53;;;;;;;27.17;24.90;;;4.90;99.90;;;;;;4980942;28;20442;-73
2021/11/21 04:49:19;;;;;;;26.60;24.40;;;4.90;99.90;;;;;;4981873;28;20450;-75
2021/11/21 04:51:46;;;;;;;25.30;23.20;;;4.90;99.90;;;;;;4980589;28;20471;-72
2021/11/21 04:54:15;;;;;;;26.60;24.30;;;4.90;99.90;;;;;;4980487;28;20967;-72
2021/11/21 04:56:46;;;;;;;23.93;21.97;;;4.90;99.90;;;;;;4981948;28;21015;-72
2021/11/21 04:59:12;;;;;;;23.13;21.33;;;4.80;99.90;;;;;;4981443;28;20449;-72
2021/11/21 05:01:39;;;;;;;24.00;22.20;;;4.70;99.90;;;;;;4979497;28;20482;-73
2021/11/21 05:04:06;;;;;;;22.77;21.07;;;4.70;99.90;;;;;;4981715;28;20454;-73
2021/11/21 05:06:33;;;;;;;20.50;19.10;;;4.70;99.90;;;;;;4981339;28;20451;-74
2021/11/21 05:09:01;;;;;;;20.60;19.30;;;4.70;99.90;;;;;;4982809;28;20462;-74
2021/11/21 05:11:27;;;;;;;20.93;19.53;;;4.70;99.90;;;;;;4991602;28;20454;-75
2021/11/21 05:13:55;;;;;;;22.73;20.83;;;4.60;99.90;;;;;;4991682;28;20454;-75
2021/11/21 05:16:22;;;;;;;26.00;23.53;;;4.60;99.90;;;;;;4991348;28;20486;-76
2021/11/21 05:18:49;;;;;;;24.87;22.87;;;4.50;99.90;;;;;;4991571;28;20467;-72
2021/11/21 05:21:15;;;;;;;24.90;22.77;;;4.50;99.90;;;;;;4991718;28;20451;-73
2021/11/21 05:23:42;;;;;;;27.07;24.67;;;4.50;99.90;;;;;;4991664;28;20459;-74
2021/11/21 05:26:09;;;;;;;25.60;23.57;;;4.50;99.90;;;;;;4990687;28;20451;-73
2021/11/21 05:28:35;;;;;;;24.77;22.87;;;4.40;99.90;;;;;;4990848;28;20498;-72
2021/11/21 05:31:04;;;;;;;27.37;25.23;;;4.40;99.90;;;;;;4991611;28;20450;-73
2021/11/21 05:33:30;;;;;;;26.93;24.70;;;4.30;99.90;;;;;;4991583;28;20458;-73
2021/11/21 05:35:57;;;;;;;24.20;22.30;;;4.40;99.90;;;;;;4991330;28;20602;-73
2021/11/21 05:38:24;;;;;;;24.40;22.40;;;4.30;99.90;;;;;;4991308;28;20458;-73
2021/11/21 05:40:51;;;;;;;24.73;22.73;;;4.30;99.90;;;;;;4991196;28;20949;-73
2021/11/21 05:43:18;;;;;;;24.73;22.73;;;4.40;99.90;;;;;;4991402;28;20494;-74
2021/11/21 05:45:46;;;;;;;25.60;23.20;;;4.50;99.90;;;;;;4991572;28;20464;-74
2021/11/21 05:48:14;;;;;;;24.83;22.77;;;4.40;99.90;;;;;;4991376;28;20453;-73
2021/11/21 05:50:41;;;;;;;24.03;22.27;;;4.40;99.90;;;;;;4991088;28;20459;-73
2021/11/21 05:53:07;;;;;;;25.03;22.97;;;4.40;99.90;;;;;;4991150;28;20450;-73
2021/11/21 05:55:34;;;;;;;23.27;21.50;;;4.30;99.90;;;;;;4991234;28;20856;-73
2021/11/21 05:58:01;;;;;;;21.87;20.37;;;4.30;99.90;;;;;;4991422;28;20459;-72
2021/11/21 06:00:29;;;;;;;23.97;22.10;;;4.40;99.90;;;;;;4991366;28;20443;-73
2021/11/21 06:02:56;;;;;;;24.97;22.77;;;4.50;99.90;;;;;;4991145;28;20455;-73
2021/11/21 06:05:24;;;;;;;27.57;25.23;;;4.30;99.90;;;;;;4991258;28;20447;-74
2021/11/21 06:07:51;;;;;;;25.13;22.93;;;4.40;99.90;;;;;;4990753;28;20957;-72
2021/11/21 06:10:18;;;;;;;23.70;21.87;;;4.40;99.90;;;;;;4991249;28;20509;-73
2021/11/21 06:12:45;;;;;;;24.00;21.73;;;4.30;99.90;;;;;;4991139;28;20453;-73
2021/11/21 06:15:12;;;;;;;24.20;22.30;;;4.30;99.90;;;;;;4990774;28;20487;-73
2021/11/21 06:17:42;;;;;;;26.23;23.73;;;4.30;99.90;;;;;;4991052;28;20461;-74
2021/11/21 06:20:10;;;;;;;24.20;22.17;;;4.20;99.90;;;;;;4990952;28;20455;-73
2021/11/21 06:22:39;;;;;;;25.87;23.67;;;4.20;99.90;;;;;;4990819;28;20835;-72
2021/11/21 06:25:07;;;;;;;25.47;23.27;;;4.10;99.90;;;;;;4990817;28;20976;-73
2021/11/21 06:27:34;;;;;;;24.07;22.17;;;4.20;99.90;;;;;;4991025;28;20479;-73
2021/11/21 06:30:01;;;;;;;22.67;20.70;;;4.10;99.90;;;;;;4991014;28;20489;-74
2021/11/21 06:32:28;;;;;;;23.67;21.83;;;4.00;99.90;;;;;;4990846;28;20455;-74
2021/11/21 06:34:54;;;;;;;23.67;21.77;;;4.00;99.90;;;;;;4990626;28;20454;-73
2021/11/21 06:37:21;;;;;;;24.60;22.63;;;4.00;99.90;;;;;;4990861;28;20445;-73
2021/11/21 06:39:49;;;;;;;22.37;20.57;;;4.00;99.90;;;;;;4994602;28;20453;-73
2021/11/21 06:42:16;;;;;;;23.93;21.93;;;4.20;99.90;;;;;;4994689;28;20828;-74
2021/11/21 06:44:43;;;;;;;24.33;22.60;;;4.30;99.90;;;;;;4994377;28;20508;-74
2021/11/21 06:47:12;;;;;;;25.10;23.10;;;4.30;99.90;;;;;;4994094;28;20546;-72
2021/11/21 06:49:39;;;;;;;24.70;22.83;;;4.30;99.90;;;;;;4994229;28;20905;-73
2021/11/21 06:52:07;;;;;;;24.47;22.50;;;4.30;99.90;;;;;;4994333;28;20446;-73
2021/11/21 06:54:33;;;;;;;27.17;24.87;;;4.30;99.90;;;;;;4994254;28;20445;-73
2021/11/21 06:57:02;;;;;;;26.30;24.00;;;4.20;99.90;;;;;;4994012;28;20487;-74
2021/11/21 06:59:28;;;;;;;25.50;23.30;;;4.20;99.90;;;;;;4994287;28;20450;-73
2021/11/21 07:01:55;;;;;;;26.20;23.90;;;4.20;99.90;;;;;;4993786;28;20455;-73
2021/11/21 07:04:22;;;;;;;26.43;24.33;;;4.00;99.90;;;;;;4994048;28;20481;-74
2021/11/21 07:06:49;;;;;;;27.87;25.53;;;4.10;99.90;;;;;;4990628;28;20454;-73
2021/11/21 07:09:17;;;;;;;24.53;22.40;;;4.10;99.90;;;;;;4982731;28;20452;-72
2021/11/21 07:11:45;;;;;;;28.27;25.50;;;4.00;99.90;;;;;;4981838;28;20444;-73
2021/11/21 07:14:13;;;;;;;26.90;24.40;;;4.10;99.90;;;;;;4982792;28;20442;-73
2021/11/21 07:16:42;;;;;;;26.83;24.43;;;4.10;99.90;;;;;;4983862;28;20488;-73
2021/11/21 07:19:09;;;;;;;24.20;22.27;;;4.10;99.90;;;;;;4982681;28;20819;-73
2021/11/21 07:21:36;;;;;;;25.93;23.43;;;4.10;99.90;;;;;;4982119;28;20454;-73
2021/11/21 07:24:03;;;;;;;26.23;23.87;;;4.20;99.90;;;;;;4983725;28;20533;-73
2021/11/21 07:26:29;;;;;;;25.73;23.63;;;4.20;99.90;;;;;;4982808;28;20456;-73
2021/11/21 07:28:56;;;;;;;26.13;23.77;;;4.20;99.90;;;;;;4981913;28;20483;-71
2021/11/21 07:31:24;;;;;;;25.00;22.20;;;4.20;99.90;;;;;;4983512;28;20809;-72
2021/11/21 07:33:51;;;;;;;25.30;23.10;;;4.10;99.90;;;;;;4982502;28;20447;-72
2021/11/21 07:36:18;;;;;;;24.50;22.40;;;4.20;99.90;;;;;;4981187;28;21029;-70
2021/11/21 07:38:45;;;;;;;27.17;24.97;;;4.30;99.90;;;;;;4981807;28;20445;-71
2021/11/21 07:41:12;;;;;;;25.73;23.53;;;4.30;99.90;;;;;;4982743;28;20526;-71
2021/11/21 07:43:38;;;;;;;29.23;26.57;;;4.20;99.90;;;;;;4976063;28;20460;-71
2021/11/21 07:46:05;;;;;;;26.97;24.93;;;4.30;99.90;;;;;;4973524;28;20973;-74
2021/11/21 07:48:33;;;;;;;26.50;24.30;;;4.30;99.90;;;;;;4973387;28;20456;-72
2021/11/21 07:51:00;;;;;;;25.93;23.63;;;4.30;99.90;;;;;;4973023;28;20955;-72
2021/11/21 07:53:27;;;;;;;29.40;26.47;;;4.30;99.90;;;;;;4973682;28;20460;-72
2021/11/21 07:55:54;;;;;;;27.10;24.70;;;4.30;99.90;;;;;;4973926;28;20479;-73
2021/11/21 07:58:22;;;;;;;29.07;26.50;;;4.40;99.90;;;;;;4973682;28;20814;-73
2021/11/21 08:00:49;;;;;;;28.93;26.17;;;4.30;99.90;;;;;;4973548;28;20460;-72
2021/11/21 08:03:16;;;;;;;28.50;25.90;;;4.30;99.90;;;;;;4973564;28;20510;-73
2021/11/21 08:05:44;;;;;;;29.90;27.23;;;4.30;99.90;;;;;;4973452;28;20453;-73
2021/11/21 08:08:11;;;;;;;28.03;25.57;;;4.30;99.90;;;;;;4973793;28;20457;-73
2021/11/21 08:10:38;;;;;;;27.47;25.13;;;4.30;99.90;;;;;;4973490;28;20459;-73
2021/11/21 08:13:04;;;;;;;29.87;27.37;;;4.20;99.90;;;;;;4973314;28;20474;-72
2021/11/21 08:15:31;;;;;;;28.33;25.73;;;4.20;99.90;;;;;;4973428;28;20484;-73
2021/11/21 08:17:58;;;;;;;30.87;27.70;;;4.30;99.90;;;;;;4973596;28;20458;-72
2021/11/21 08:20:26;;;;;;;32.77;29.53;;;4.20;99.90;;;;;;4973101;28;20496;-73
2021/11/21 08:22:54;;;;;;;29.33;26.73;;;4.30;99.90;;;;;;4973308;28;20462;-72
2021/11/21 08:25:21;;;;;;;30.70;27.97;;;4.20;99.90;;;;;;4972875;28;20515;-72
2021/11/21 08:27:47;;;;;;;30.53;27.53;;;4.30;99.90;;;;;;4972938;28;20992;-73
2021/11/21 08:30:14;;;;;;;30.20;27.57;;;4.30;99.90;;;;;;4972816;28;20503;-72
2021/11/21 08:32:41;;;;;;;29.93;26.93;;;4.30;99.90;;;;;;4972894;28;20456;-73
2021/11/21 08:35:09;;;;;;;29.10;26.50;;;4.30;99.90;;;;;;4973164;28;20456;-73
2021/11/21 08:37:35;;;;;;;29.70;27.00;;;4.30;99.90;;;;;;4972916;28;20487;-75
2021/11/21 08:40:05;;;;;;;33.57;30.37;;;4.30;99.90;;;;;;4972753;28;20460;-74
2021/11/21 08:42:33;;;;;;;32.90;29.90;;;4.50;99.90;;;;;;4972926;28;20474;-74
2021/11/21 08:44:59;;;;;;;31.53;28.60;;;4.50;99.90;;;;;;4973000;28;20467;-73
2021/11/21 08:47:26;;;;;;;32.33;29.50;;;4.40;99.90;;;;;;4972756;28;20534;-73
2021/11/21 08:49:53;;;;;;;32.50;29.47;;;4.40;99.90;;;;;;4972596;28;20462;-73
2021/11/21 08:52:20;;;;;;;30.93;28.23;;;4.40;99.90;;;;;;4972463;28;20456;-73
2021/11/21 08:54:46;;;;;;;31.30;28.50;;;4.40;99.90;;;;;;4972797;28;20458;-72
2021/11/21 08:57:14;;;;;;;31.80;28.90;;;4.50;99.90;;;;;;4972730;28;20542;-73
2021/11/21 08:59:41;;;;;;;32.53;29.53;;;4.50;99.90;;;;;;4972559;28;20463;-73
2021/11/21 09:02:09;;;;;;;31.87;28.90;;;4.40;99.90;;;;;;4972367;28;20451;-73
2021/11/21 09:04:35;;;;;;;32.23;29.20;;;4.40;99.90;;;;;;4972334;28;20479;-73
2021/11/21 09:07:02;;;;;;;32.77;29.87;;;4.30;99.90;;;;;;4972463;28;20448;-73
2021/11/21 09:09:29;;;;;;;33.50;30.23;;;4.40;99.90;;;;;;4972766;28;20457;-72
2021/11/21 09:11:55;;;;;;;34.80;31.20;;;4.40;99.90;;;;;;4972145;28;20458;-72
2021/11/21 09:14:25;;;;;;;32.40;29.50;;;4.60;99.90;;;;;;4972257;28;20449;-73
2021/11/21 09:16:52;;;;;;;31.40;28.83;;;4.60;99.90;;;;;;4972341;28;20504;-73
2021/11/21 09:19:19;;;;;;;31.10;28.63;;;4.70;99.90;;;;;;4972292;28;20463;-71
2021/11/21 09:21:45;;;;;;;32.57;29.80;;;4.60;99.90;;;;;;4972138;28;20939;-72
2021/11/21 09:24:12;;;;;;;33.07;30.27;;;4.40;99.90;;;;;;4972217;28;20449;-72
2021/11/21 09:26:39;;;;;;;33.43;30.30;;;4.50;99.90;;;;;;4971962;28;20462;-72
2021/11/21 09:29:06;;;;;;;31.03;28.33;;;4.40;99.90;;;;;;4971757;28;20485;-73
2021/11/21 09:31:34;;;;;;;33.17;29.80;;;4.30;99.90;;;;;;4972318;28;20821;-73
2021/11/21 09:34:01;;;;;;;30.70;28.07;;;4.40;99.90;;;;;;4972331;28;20448;-72
2021/11/21 09:36:28;;;;;;;31.20;28.60;;;4.50;99.90;;;;;;4971784;28;20490;-72
2021/11/21 09:38:54;;;;;;;29.10;26.63;;;4.30;99.90;;;;;;4971910;28;20455;-72
2021/11/21 09:41:21;;;;;;;29.27;26.60;;;4.20;99.90;;;;;;4972044;28;20463;-72
2021/11/21 09:43:48;;;;;;;30.00;27.33;;;4.10;99.90;;;;;;4971934;28;20451;-72
2021/11/21 09:46:16;;;;;;;32.60;29.27;;;4.00;99.90;;;;;;4972078;28;20452;-73
2021/11/21 09:48:44;;;;;;;31.73;28.80;;;4.10;99.90;;;;;;4971597;28;20798;-74
2021/11/21 09:51:11;;;;;;;30.97;27.97;;;4.20;99.90;;;;;;4971444;28;20466;-73
2021/11/21 09:53:38;;;;;;;31.30;28.20;;;4.20;99.90;;;;;;4971606;28;20460;-73
2021/11/21 09:56:05;;;;;;;32.00;28.97;;;4.10;99.90;;;;;;4971701;28;20460;-73
2021/11/21 09:58:32;;;;;;;30.77;27.80;;;4.10;99.90;;;;;;4971641;28;20456;-74
2021/11/21 10:00:58;;;;;;;31.17;28.20;;;4.10;99.90;;;;;;4970615;28;20818;-73
2021/11/21 10:03:26;;;;;;;31.30;28.30;;;4.10;99.90;;;;;;4971218;28;20486;-73
2021/11/21 10:05:55;;;;;;;30.73;28.03;;;4.10;99.90;;;;;;4971107;28;20506;-73
2021/11/21 10:08:24;;;;;;;30.60;27.90;;;4.10;99.90;;;;;;4971282;28;20498;-73
2021/11/21 10:10:52;;;;;;;30.40;27.33;;;4.10;99.90;;;;;;4971202;28;20945;-73
2021/11/21 10:13:40;;;;;;;29.37;26.83;;;4.10;99.90;;;;;;4972756;28;20468;-73
2021/11/21 10:16:23;;;;;;;32.00;28.80;;;4.10;99.90;;;;;;4972973;28;20495;-74
2021/11/21 10:18:52;;;;;;;31.07;27.97;;;4.10;99.90;;;;;;4975008;28;20451;-73
2021/11/21 10:21:21;;;;;;;34.47;30.00;;;4.10;99.90;;;;;;4974652;28;20467;-73
2021/11/21 10:23:49;;;;;;;30.10;27.30;;;4.10;99.90;;;;;;4974839;28;20448;-73
2021/11/21 10:26:22;;;;;;;34.37;30.20;;;4.10;99.90;;;;;;4974588;28;20462;-74
2021/11/21 10:28:49;;;;;;;37.40;31.90;;;4.10;99.90;;;;;;4974502;28;20528;-73
2021/11/21 10:31:18;;;;;;;31.37;28.07;;;4.10;99.90;;;;;;4974496;28;20549;-74
2021/11/21 10:33:49;;;;;;;30.53;27.33;;;4.20;99.90;;;;;;4974559;28;20451;-74
2021/11/21 10:36:21;;;;;;;35.83;29.67;;;4.20;99.90;;;;;;4974779;28;20443;-74
2021/11/21 10:38:50;;;;;;;32.90;29.67;;;4.20;99.90;;;;;;4974707;28;20443;-73
2021/11/21 10:41:22;;;;;;;31.23;28.13;;;4.30;99.90;;;;;;4974398;28;20458;-74
2021/11/21 10:43:56;;;;;;;30.23;27.47;;;4.40;99.90;;;;;;4974229;28;20465;-73
2021/11/21 10:46:32;;;;;;;32.03;28.83;;;4.40;99.90;;;;;;4974362;28;20460;-73
2021/11/21 10:49:17;;;;;;;28.20;25.50;;;4.20;99.90;;;;;;4973991;28;20442;-74
2021/11/21 10:51:46;;;;;;;31.60;28.50;;;4.10;99.90;;;;;;4974278;28;20461;-73
2021/11/21 10:54:21;;;;;;;26.77;24.23;;;4.30;99.90;;;;;;4974214;28;20815;-73
2021/11/21 10:56:48;;;;;;;30.47;27.30;;;4.40;99.90;;;;;;4974287;28;20505;-73
2021/11/21 10:59:15;;;;;;;33.83;30.30;;;4.40;99.90;;;;;;4974232;28;20470;-73
2021/11/21 11:01:41;;;;;;;30.33;26.70;;;4.40;99.90;;;;;;4974210;28;20459;-74
2021/11/21 11:04:13;;;;;;;29.83;26.63;;;4.30;99.90;;;;;;4973990;28;20948;-73
2021/11/21 11:06:41;;;;;;;29.10;26.23;;;4.40;99.90;;;;;;4974241;28;21131;-73
2021/11/21 11:09:18;;;;;;;31.83;28.30;;;4.40;99.90;;;;;;4973804;28;20466;-73
2021/11/21 11:11:45;;;;;;;32.03;27.80;;;4.50;99.90;;;;;;4974119;28;20587;-73
2021/11/21 11:14:18;;;;;;;35.70;28.60;;;4.60;99.90;;;;;;4973881;28;20459;-74
2021/11/21 11:16:46;;;;;;;32.17;27.50;;;4.60;99.90;;;;;;4974108;28;20452;-73
2021/11/21 11:19:15;;;;;;;30.67;27.33;;;4.70;99.90;;;;;;4973867;28;20887;-74
2021/11/21 11:21:42;;;;;;;30.23;27.20;;;4.70;99.90;;;;;;4973859;28;20495;-73
2021/11/21 11:24:09;;;;;;;30.47;27.37;;;4.60;99.90;;;;;;4973592;28;20459;-73
2021/11/21 11:26:41;;;;;;;31.40;26.20;;;4.60;99.90;;;;;;4973604;28;20500;-73
2021/11/21 11:29:18;;;;;;;29.90;26.80;;;4.60;99.90;;;;;;4973257;28;20472;-73
2021/11/21 11:31:44;;;;;;;29.47;26.77;;;4.60;99.90;;;;;;4973730;28;20456;-73
2021/11/21 11:34:34;;;;;;;31.17;26.60;;;4.60;99.90;;;;;;4973519;28;20447;-73
2021/11/21 11:37:00;;;;;;;32.63;25.47;;;4.60;99.90;;;;;;4973374;28;20499;-73
2021/11/21 11:39:39;;;;;;;29.97;26.87;;;4.60;99.90;;;;;;4973615;28;20823;-73
2021/11/21 11:42:35;;;;;;;28.40;24.63;;;4.60;99.90;;;;;;4973136;28;20547;-73
2021/11/21 11:45:05;;;;;;;28.60;26.00;;;4.60;99.90;;;;;;4973318;28;20458;-73
2021/11/21 11:47:32;;;;;;;30.03;27.07;;;4.60;99.90;;;;;;4973359;28;20440;-73
2021/11/21 11:49:59;;;;;;;30.03;27.17;;;4.60;99.90;;;;;;4973008;28;20449;-73
2021/11/21 11:52:55;;;;;;;28.40;25.80;;;4.60;99.90;;;;;;4973267;28;20922;-73
2021/11/21 11:55:24;;;;;;;28.40;25.57;;;4.70;99.90;;;;;;4973160;28;20735;-74
2021/11/21 11:57:53;;;;;;;29.20;26.17;;;4.80;99.90;;;;;;4972920;28;20546;-73
2021/11/21 12:00:32;;;;;;;28.13;25.20;;;4.80;99.90;;;;;;4972928;28;20480;-73
2021/11/21 12:02:59;;;;;;;29.43;26.30;;;4.70;99.90;;;;;;4972886;28;20977;-73
2021/11/21 12:05:34;;;;;;;27.93;25.30;;;4.70;99.90;;;;;;4972863;28;20459;-75
2021/11/21 12:08:15;;;;;;;30.20;27.00;;;4.60;99.90;;;;;;4974309;28;20452;-73
2021/11/21 12:10:50;;;;;;;30.43;27.43;;;4.60;99.90;;;;;;4977999;28;20846;-73
2021/11/21 12:13:30;;;;;;;30.70;27.77;;;4.60;99.90;;;;;;4979367;28;20454;-73
2021/11/21 12:16:00;;;;;;;33.10;29.90;;;4.50;99.90;;;;;;4981214;28;20448;-72
2021/11/21 12:18:55;;;;;;;31.13;28.20;;;4.50;99.90;;;;;;4981127;28;20482;-73
2021/11/21 12:21:48;;;;;;;30.97;27.97;;;4.50;99.90;;;;;;4975468;28;20470;-73
2021/11/21 12:24:27;;;;;;;32.87;29.77;;;4.50;99.90;;;;;;4980778;28;20458;-74
2021/11/21 12:26:55;;;;;;;33.57;30.67;;;4.50;99.90;;;;;;4980093;28;20479;-73
2021/11/21 12:29:29;;;;;;;35.40;32.10;;;4.50;99.90;;;;;;4981267;28;20816;-73
2021/11/21 12:31:59;;;;;;;34.90;31.20;;;4.60;99.90;;;;;;4980513;28;20505;-74
2021/11/21 12:34:34;;;;;;;35.63;32.10;;;4.70;99.90;;;;;;4980470;28;20498;-73
2021/11/21 12:37:16;;;;;;;36.33;32.70;;;4.80;99.90;;;;;;4980667;28;20662;-73
2021/11/21 12:39:45;;;;;;;36.73;32.97;;;4.70;99.90;;;;;;4981350;28;20938;-73
2021/11/21 12:42:16;;;;;;;36.30;32.10;;;4.70;99.90;;;;;;4979844;28;20455;-73